Time;durP1;ratioP1;P1;durP2;ratioP2;P2;SDS_P1;SDS_P2;PMS_P1;PMS_P2;Temp;Humidity;BMP_temperature;BMP_pressure;BME280_temperature;BME280_humidity;BME280_pressure;Samples;Min_cycle;Max_cycle;Signal;HPM_P1;HPM_P2
2023/09/05 00:00:06;;;;;;;;;;;;;;;22.59;96.06;98697.81;5063895;28;19925;-76
2023/09/05 00:02:33;;;;;;;;;;;;;;;22.61;95.76;98694.78;5042940;28;19968;-76
2023/09/05 00:04:59;;;;;;;;;;;;;;;22.61;96.04;98692.06;5059778;28;19921;-76
2023/09/05 00:07:27;;;;;;;;;;;;;;;22.60;96.56;98693.97;5062328;28;19948;-77
2023/09/05 00:09:57;;;;;;;;;;;;;;;22.60;96.45;98699.41;5063961;28;19991;-77
2023/09/05 00:12:23;;;;;;;;;;;;;;;22.59;96.89;98692.38;5044540;28;19955;-78
2023/09/05 00:14:51;;;;;;;;;;;;;;;22.57;96.94;98693.81;5060002;28;19925;-77
2023/09/05 00:17:17;;;;;;;;;;;;;;;22.56;97.62;98681.34;5034146;28;19925;-77
2023/09/05 00:19:43;;;;;;;;;;;;;;;22.57;97.62;98685.66;5063153;28;19956;-77
2023/09/05 00:22:11;;;;;;;;;;;;;;;22.57;97.86;98682.91;5045781;28;19960;-77
2023/09/05 00:24:38;;;;;;;;;;;;;;;22.54;98.09;98684.38;5042599;28;19996;-77
2023/09/05 00:27:06;;;;;;;;;;;;;;;22.53;98.48;98682.75;5059866;28;19925;-77
2023/09/05 00:29:32;;;;;;;;;;;;;;;22.51;99.01;98686.94;5062196;28;19925;-77
2023/09/05 00:32:01;;;;;;;;;;;;;;;22.49;98.94;98675.56;5063358;28;19929;-77
2023/09/05 00:34:28;;;;;;;;;;;;;;;22.45;99.75;98685.50;5061118;28;19929;-76
2023/09/05 00:36:54;;;;;;;;;;;;;;;22.42;100.00;98677.97;5041918;28;19932;-76
2023/09/05 00:39:21;;;;;;;;;;;;;;;22.41;100.00;98679.09;5060985;28;19925;-76
2023/09/05 00:41:47;;;;;;;;;;;;;;;22.40;100.00;98675.59;5045894;28;19965;-76
2023/09/05 00:44:14;;;;;;;;;;;;;;;22.39;100.00;98673.97;5044606;28;19974;-76
2023/09/05 00:46:42;;;;;;;;;;;;;;;22.40;100.00;98672.06;5050847;28;19932;-76
2023/09/05 00:49:12;;;;;;;;;;;;;;;22.39;100.00;98682.16;5059493;28;19933;-76
2023/09/05 00:51:39;;;;;;;;;;;;;;;22.27;100.00;98681.19;5054684;28;20093;-77
2023/09/05 00:54:06;;;;;;;;;;;;;;;21.80;100.00;98677.44;5044613;28;19928;-77
2023/09/05 00:56:35;;;;;;;;;;;;;;;21.56;100.00;98675.16;5059920;28;19929;-77
2023/09/05 00:59:01;;;;;;;;;;;;;;;21.45;100.00;98671.91;5041692;28;19944;-77
2023/09/05 01:01:29;;;;;;;;;;;;;;;21.48;100.00;98667.75;5044137;28;19921;-77
2023/09/05 01:03:56;;;;;;;;;;;;;;;21.53;100.00;98665.72;5063635;28;19925;-77
2023/09/05 01:06:31;;;;;;;;;;;;;;;21.53;100.00;98660.28;5061602;28;19925;-77
2023/09/05 01:09:03;;;;;;;;;;;;;;;21.83;100.00;98655.84;5060108;28;19925;-77
2023/09/05 01:11:30;;;;;;;;;;;;;;;21.95;100.00;98660.69;5044759;28;19929;-77
2023/09/05 01:13:56;;;;;;;;;;;;;;;22.02;100.00;98663.75;5062862;28;19925;-77
2023/09/05 01:16:23;;;;;;;;;;;;;;;22.06;100.00;98660.03;5052893;28;19956;-77
2023/09/05 01:18:49;;;;;;;;;;;;;;;22.08;100.00;98657.03;5058960;28;20571;-77
2023/09/05 01:21:22;;;;;;;;;;;;;;;22.11;100.00;98658.28;5059205;28;19948;-77
2023/09/05 01:23:55;;;;;;;;;;;;;;;22.09;100.00;98652.38;5062172;28;19933;-77
2023/09/05 01:26:23;;;;;;;;;;;;;;;22.10;100.00;98656.72;5060847;28;19947;-77
2023/09/05 01:28:52;;;;;;;;;;;;;;;22.08;100.00;98659.75;5040743;28;19961;-77
2023/09/05 01:31:18;;;;;;;;;;;;;;;22.06;100.00;98659.28;5059162;28;19984;-77
2023/09/05 01:33:45;;;;;;;;;;;;;;;22.06;100.00;98657.31;5044263;28;19952;-77
2023/09/05 01:36:11;;;;;;;;;;;;;;;22.04;100.00;98645.16;5044059;28;19952;-77
2023/09/05 01:38:38;;;;;;;;;;;;;;;22.01;100.00;98656.69;5058372;28;19925;-77
2023/09/05 01:41:04;;;;;;;;;;;;;;;21.98;100.00;98651.88;5040849;28;20012;-77
2023/09/05 01:43:32;;;;;;;;;;;;;;;21.94;100.00;98643.56;5060820;28;19967;-77
2023/09/05 01:45:58;;;;;;;;;;;;;;;21.75;100.00;98648.50;5055677;28;19960;-77
2023/09/05 01:48:24;;;;;;;;;;;;;;;21.73;100.00;98652.63;5040819;28;19968;-77
2023/09/05 01:50:51;;;;;;;;;;;;;;;21.58;100.00;98647.63;5058427;28;19925;-76
2023/09/05 01:53:17;;;;;;;;;;;;;;;21.63;100.00;98653.75;5058623;28;19925;-77
2023/09/05 01:55:43;;;;;;;;;;;;;;;21.63;100.00;98652.94;5061479;28;19932;-76
2023/09/05 01:58:10;;;;;;;;;;;;;;;21.70;100.00;98648.63;5061360;28;19936;-76
2023/09/05 02:00:37;;;;;;;;;;;;;;;21.76;100.00;98646.53;5058417;28;19926;-76
2023/09/05 02:03:04;;;;;;;;;;;;;;;21.78;100.00;98653.28;5058612;28;19925;-76
2023/09/05 02:05:30;;;;;;;;;;;;;;;21.79;100.00;98654.06;5042252;28;19925;-76
2023/09/05 02:07:57;;;;;;;;;;;;;;;21.78;100.00;98647.06;5061408;28;19925;-76
2023/09/05 02:10:23;;;;;;;;;;;;;;;21.79;100.00;98644.00;5060125;28;19959;-76
2023/09/05 02:12:50;;;;;;;;;;;;;;;21.81;100.00;98646.41;5040435;28;19936;-76
2023/09/05 02:15:17;;;;;;;;;;;;;;;21.81;100.00;98649.13;5041267;28;20715;-76
2023/09/05 02:17:44;;;;;;;;;;;;;;;21.79;100.00;98646.72;5054450;28;20015;-76
2023/09/05 02:20:11;;;;;;;;;;;;;;;21.78;100.00;98650.56;5062327;28;19925;-76
2023/09/05 02:22:38;;;;;;;;;;;;;;;21.75;100.00;98655.84;5058505;28;19925;-76
2023/09/05 02:25:04;;;;;;;;;;;;;;;21.75;100.00;98656.66;5058588;28;19971;-76
2023/09/05 02:27:31;;;;;;;;;;;;;;;21.72;100.00;98651.03;5043053;28;19956;-76
2023/09/05 02:30:09;;;;;;;;;;;;;;;21.70;100.00;98650.53;5061338;28;19947;-76
2023/09/05 02:32:36;;;;;;;;;;;;;;;21.70;100.00;98643.19;5041228;28;19925;-76
2023/09/05 02:35:05;;;;;;;;;;;;;;;21.67;100.00;98643.81;5040568;28;19964;-76
2023/09/05 02:37:32;;;;;;;;;;;;;;;21.67;100.00;98648.44;5060573;28;19926;-76
2023/09/05 02:39:58;;;;;;;;;;;;;;;21.66;100.00;98650.41;5061838;28;19924;-76
2023/09/05 02:42:24;;;;;;;;;;;;;;;21.66;100.00;98655.84;5042058;28;19975;-76
2023/09/05 02:44:51;;;;;;;;;;;;;;;21.65;100.00;98658.84;5039854;28;20314;-76
2023/09/05 02:47:18;;;;;;;;;;;;;;;21.60;100.00;98654.34;5032332;28;19925;-76
2023/09/05 02:49:44;;;;;;;;;;;;;;;21.59;100.00;98652.78;5061299;28;19925;-76
2023/09/05 02:52:12;;;;;;;;;;;;;;;21.59;100.00;98643.81;5061156;28;19928;-76
2023/09/05 02:54:38;;;;;;;;;;;;;;;21.59;100.00;98643.81;5057637;28;19932;-75
2023/09/05 02:57:04;;;;;;;;;;;;;;;21.57;100.00;98646.84;5040509;28;19964;-75
2023/09/05 02:59:31;;;;;;;;;;;;;;;21.56;100.00;98636.28;5075677;28;19932;-76
2023/09/05 03:01:57;;;;;;;;;;;;;;;21.50;100.00;98641.09;5060958;28;19932;-76
2023/09/05 03:04:25;;;;;;;;;;;;;;;21.41;100.00;98641.06;5059725;28;19929;-76
2023/09/05 03:06:51;;;;;;;;;;;;;;;21.40;100.00;98639.44;5057509;28;19925;-76
2023/09/05 03:09:19;;;;;;;;;;;;;;;21.40;100.00;98639.44;5058069;28;19947;-76
2023/09/05 03:11:45;;;;;;;;;;;;;;;21.35;100.00;98636.88;5061124;28;19948;-76
2023/09/05 03:14:12;;;;;;;;;;;;;;;21.38;100.00;98646.31;5060894;28;19925;-76
2023/09/05 03:16:38;;;;;;;;;;;;;;;21.37;100.00;98645.53;5033666;28;20011;-76
2023/09/05 03:19:04;;;;;;;;;;;;;;;21.39;100.00;98647.91;5043771;28;19925;-76
2023/09/05 03:21:31;;;;;;;;;;;;;;;21.36;100.00;98637.66;5063960;28;19929;-76
2023/09/05 03:23:59;;;;;;;;;;;;;;;21.29;100.00;98643.56;5064468;28;19960;-76
2023/09/05 03:26:26;;;;;;;;;;;;;;;21.30;100.00;98642.44;5062763;28;19956;-76
2023/09/05 03:28:53;;;;;;;;;;;;;;;21.29;100.00;98643.56;5061055;28;19964;-76
2023/09/05 03:31:19;;;;;;;;;;;;;;;21.30;100.00;98650.59;5044132;28;19952;-76
2023/09/05 03:33:46;;;;;;;;;;;;;;;21.29;100.00;98651.72;5046662;28;19947;-76
2023/09/05 03:36:13;;;;;;;;;;;;;;;21.27;100.00;98645.81;5064452;28;19924;-76
2023/09/05 03:38:39;;;;;;;;;;;;;;;21.24;100.00;98641.00;5051132;28;20012;-76
2023/09/05 03:41:06;;;;;;;;;;;;;;;21.24;100.00;98642.91;5060797;28;20250;-76
2023/09/05 03:43:34;;;;;;;;;;;;;;;21.24;100.00;98646.44;5063080;28;19940;-76
2023/09/05 03:46:00;;;;;;;;;;;;;;;21.22;99.97;98643.25;5040068;28;19932;-76
2023/09/05 03:48:26;;;;;;;;;;;;;;;21.21;99.46;98647.06;5060649;28;20461;-76
2023/09/05 03:50:53;;;;;;;;;;;;;;;20.95;100.00;98640.69;5042585;28;19976;-76
2023/09/05 03:53:20;;;;;;;;;;;;;;;20.70;100.00;98647.59;5043480;28;19921;-76
2023/09/05 03:55:47;;;;;;;;;;;;;;;20.94;100.00;98645.31;5063796;28;19960;-76
2023/09/05 03:58:14;;;;;;;;;;;;;;;20.99;100.00;98655.25;5063917;28;19947;-76
2023/09/05 04:00:42;;;;;;;;;;;;;;;21.01;99.65;98659.25;5061014;28;19932;-76
2023/09/05 04:03:09;;;;;;;;;;;;;;;21.04;99.31;98657.84;5060464;28;19925;-76
2023/09/05 04:05:36;;;;;;;;;;;;;;;21.08;98.75;98658.78;5045485;28;20020;-76
2023/09/05 04:08:02;;;;;;;;;;;;;;;21.07;98.41;98648.25;5046085;28;20375;-75
2023/09/05 04:10:29;;;;;;;;;;;;;;;21.04;98.11;98649.69;5061883;28;19932;-76
2023/09/05 04:12:56;;;;;;;;;;;;;;;21.02;98.14;98649.19;5043052;28;19936;-76
2023/09/05 04:15:23;;;;;;;;;;;;;;;21.02;97.66;98646.47;5042265;28;19948;-76
2023/09/05 04:17:51;;;;;;;;;;;;;;;21.02;97.58;98649.19;5056771;28;19927;-76
2023/09/05 04:20:18;;;;;;;;;;;;;;;21.02;97.31;98647.28;5063016;28;19924;-76
2023/09/05 04:22:44;;;;;;;;;;;;;;;20.97;97.21;98649.34;5042278;28;19921;-77
2023/09/05 04:25:11;;;;;;;;;;;;;;;20.90;97.75;98654.41;5059990;28;19932;-77
2023/09/05 04:27:37;;;;;;;;;;;;;;;20.81;98.20;98648.94;5044603;28;19980;-77
2023/09/05 04:30:04;;;;;;;;;;;;;;;20.86;98.15;98656.13;5063411;28;19932;-76
2023/09/05 04:32:31;;;;;;;;;;;;;;;20.88;97.69;98653.91;5076405;28;19925;-76
2023/09/05 04:34:59;;;;;;;;;;;;;;;20.89;97.41;98653.59;5042127;28;19931;-76
2023/09/05 04:37:26;;;;;;;;;;;;;;;20.89;97.26;98655.50;5061472;28;19948;-76
2023/09/05 04:39:53;;;;;;;;;;;;;;;20.86;97.32;98651.50;5063609;28;19936;-76
2023/09/05 04:42:19;;;;;;;;;;;;;;;20.79;98.30;98650.34;5044466;28;19944;-76
2023/09/05 04:44:46;;;;;;;;;;;;;;;20.80;97.99;98657.38;5059543;28;19921;-76
2023/09/05 04:47:18;;;;;;;;;;;;;;;20.85;97.71;98658.06;5051497;28;19935;-77
2023/09/05 04:49:45;;;;;;;;;;;;;;;20.85;97.56;98657.25;5051208;28;19932;-76
2023/09/05 04:52:14;;;;;;;;;;;;;;;20.84;97.47;98663.78;5050968;28;19925;-76
2023/09/05 04:54:40;;;;;;;;;;;;;;;20.82;97.70;98676.88;5051370;28;19925;-76
2023/09/05 04:57:07;;;;;;;;;;;;;;;20.85;97.26;98670.84;5059556;28;19948;-76
2023/09/05 04:59:33;;;;;;;;;;;;;;;20.83;97.84;98673.03;5062040;28;19979;-76
2023/09/05 05:02:00;;;;;;;;;;;;;;;20.81;97.63;98678.78;5063196;28;19924;-76
2023/09/05 05:04:26;;;;;;;;;;;;;;;20.81;97.31;98675.28;5061151;28;19924;-75
2023/09/05 05:06:52;;;;;;;;;;;;;;;20.81;97.85;98676.09;5058939;28;19940;-76
2023/09/05 05:09:20;;;;;;;;;;;;;;;20.83;97.75;98675.75;5060135;28;19925;-76
2023/09/05 05:11:46;;;;;;;;;;;;;;;20.80;98.12;98671.75;5063167;28;19925;-76
2023/09/05 05:14:13;;;;;;;;;;;;;;;20.78;98.07;98667.75;5062932;28;19982;-76
2023/09/05 05:16:43;;;;;;;;;;;;;;;20.76;98.43;98675.41;5039292;28;19921;-76
2023/09/05 05:19:10;;;;;;;;;;;;;;;20.79;98.07;98670.16;5059182;28;19948;-76
2023/09/05 05:21:51;;;;;;;;;;;;;;;20.78;98.25;98679.41;5044339;28;19925;-76
2023/09/05 05:24:19;;;;;;;;;;;;;;;20.78;98.40;98682.13;5061622;28;19951;-76
2023/09/05 05:26:46;;;;;;;;;;;;;;;20.64;99.13;98681.38;5058806;28;19929;-76
2023/09/05 05:29:12;;;;;;;;;;;;;;;20.33;100.00;98686.75;5058648;28;19925;-76
2023/09/05 05:31:40;;;;;;;;;;;;;;;20.21;100.00;98680.28;5044164;28;19935;-77
2023/09/05 05:34:07;;;;;;;;;;;;;;;20.19;100.00;98685.19;5044612;28;19925;-76
2023/09/05 05:36:34;;;;;;;;;;;;;;;19.85;100.00;98682.97;5059672;28;19968;-76
2023/09/05 05:39:01;;;;;;;;;;;;;;;19.80;100.00;98678.47;5040439;28;19944;-76
2023/09/05 05:41:28;;;;;;;;;;;;;;;20.00;100.00;98677.19;5049546;28;20437;-76
2023/09/05 05:43:55;;;;;;;;;;;;;;;19.87;100.00;98667.19;5078117;28;20405;-76
2023/09/05 05:46:21;;;;;;;;;;;;;;;20.21;100.00;98674.84;5035535;28;19996;-76
2023/09/05 05:48:48;;;;;;;;;;;;;;;20.26;100.00;98675.56;5041326;28;19925;-76
2023/09/05 05:51:15;;;;;;;;;;;;;;;20.60;100.00;98666.84;5059740;28;19932;-76
2023/09/05 05:53:42;;;;;;;;;;;;;;;20.73;100.00;98673.31;5062579;28;19925;-76
2023/09/05 05:56:10;;;;;;;;;;;;;;;21.19;100.00;98673.75;5062574;28;19925;-76
2023/09/05 05:58:37;;;;;;;;;;;;;;;21.55;96.52;98668.09;5041805;28;19944;-76
2023/09/05 06:01:06;;;;;;;;;;;;;;;21.84;93.75;98656.66;5041336;28;19956;-76
2023/09/05 06:03:34;;;;;;;;;;;;;;;21.98;92.97;98670.94;5061126;28;19929;-76
2023/09/05 06:06:01;;;;;;;;;;;;;;;22.31;90.55;98674.00;5062143;28;19933;-76
2023/09/05 06:08:27;;;;;;;;;;;;;;;22.68;87.95;98677.97;5059782;28;19925;-76
2023/09/05 06:10:54;;;;;;;;;;;;;;;22.91;86.23;98668.47;5040485;28;19964;-76
2023/09/05 06:13:20;;;;;;;;;;;;;;;23.09;85.24;98667.28;5059206;28;19929;-76
2023/09/05 06:15:48;;;;;;;;;;;;;;;23.28;83.95;98662.25;5039259;28;19962;-76
2023/09/05 06:18:14;;;;;;;;;;;;;;;23.49;82.17;98667.78;5057719;28;19921;-76
2023/09/05 06:20:41;;;;;;;;;;;;;;;23.71;80.08;98664.75;5057824;28;19944;-77
2023/09/05 06:23:07;;;;;;;;;;;;;;;23.86;78.78;98652.50;5058107;28;19913;-76
2023/09/05 06:25:33;;;;;;;;;;;;;;;24.00;77.67;98664.72;5060518;28;19929;-76
2023/09/05 06:28:00;;;;;;;;;;;;;;;24.16;76.70;98659.50;5061559;28;19925;-76
2023/09/05 06:30:27;;;;;;;;;;;;;;;24.28;75.72;98656.84;5041811;28;19925;-76
2023/09/05 06:32:54;;;;;;;;;;;;;;;24.01;76.82;98660.09;5058025;28;19936;-76
2023/09/05 06:35:21;;;;;;;;;;;;;;;23.89;77.93;98673.66;5058781;28;19921;-76
2023/09/05 06:37:52;;;;;;;;;;;;;;;23.88;79.11;98661.94;5059204;28;20130;-77
2023/09/05 06:40:21;;;;;;;;;;;;;;;23.65;79.20;98660.63;5061464;28;19925;-77
2023/09/05 06:42:47;;;;;;;;;;;;;;;24.14;77.87;98662.56;5061284;28;19925;-77
2023/09/05 06:45:13;;;;;;;;;;;;;;;24.29;76.59;98654.91;5058707;28;19969;-77
2023/09/05 06:47:40;;;;;;;;;;;;;;;24.39;76.36;98649.00;5061566;28;19967;-77
2023/09/05 06:50:09;;;;;;;;;;;;;;;24.45;74.98;98653.94;5077783;28;19921;-77
2023/09/05 06:52:35;;;;;;;;;;;;;;;24.41;74.60;98663.16;5062585;28;19928;-76
2023/09/05 06:55:02;;;;;;;;;;;;;;;23.79;76.98;98655.75;5044215;28;19947;-76
2023/09/05 06:57:29;;;;;;;;;;;;;;;23.75;79.76;98667.63;5064076;28;19947;-76
2023/09/05 06:59:55;;;;;;;;;;;;;;;22.95;82.29;98669.41;5064723;28;19931;-76
2023/09/05 07:02:22;;;;;;;;;;;;;;;22.61;88.80;98664.81;5063590;28;19925;-77
2023/09/05 07:04:48;;;;;;;;;;;;;;;23.05;85.56;98656.25;5043753;28;19925;-76
2023/09/05 07:07:16;;;;;;;;;;;;;;;23.66;82.64;98656.78;5061194;28;19952;-77
2023/09/05 07:09:43;;;;;;;;;;;;;;;23.26;81.52;98663.69;5064717;28;19988;-76
2023/09/05 07:12:09;;;;;;;;;;;;;;;22.68;84.61;98673.34;5064903;28;19921;-76
2023/09/05 07:14:36;;;;;;;;;;;;;;;21.96;92.28;98662.28;5062334;28;19943;-76
2023/09/05 07:17:02;;;;;;;;;;;;;;;21.63;96.33;98661.09;5036123;28;19925;-77
2023/09/05 07:19:29;;;;;;;;;;;;;;;21.61;94.70;98660.59;5063395;28;19932;-77
2023/09/05 07:21:56;;;;;;;;;;;;;;;21.35;100.00;98650.44;5064610;28;19961;-76
2023/09/05 07:24:23;;;;;;;;;;;;;;;21.57;97.51;98648.78;5063528;28;19925;-76
2023/09/05 07:26:53;;;;;;;;;;;;;;;21.73;97.62;98644.47;5061231;28;19927;-77
2023/09/05 07:29:19;;;;;;;;;;;;;;;21.61;98.40;98644.28;5061428;28;19925;-77
2023/09/05 07:31:45;;;;;;;;;;;;;;;21.17;100.00;98651.50;5046711;28;19932;-78
2023/09/05 07:34:12;;;;;;;;;;;;;;;20.97;100.00;98647.41;5064495;28;19920;-76
2023/09/05 07:36:39;;;;;;;;;;;;;;;20.91;98.85;98653.28;5060757;28;19925;-77
2023/09/05 07:39:05;;;;;;;;;;;;;;;20.68;96.12;98649.00;5060811;28;19996;-77
2023/09/05 07:41:34;;;;;;;;;;;;;;;20.52;94.59;98655.94;5063416;28;19952;-76
2023/09/05 07:44:00;;;;;;;;;;;;;;;20.46;94.97;98657.97;5064233;28;19920;-76
2023/09/05 07:46:27;;;;;;;;;;;;;;;20.53;96.05;98662.97;5053949;28;19948;-75
2023/09/05 07:48:53;;;;;;;;;;;;;;;20.63;95.60;98662.72;5060537;28;19925;-76
2023/09/05 07:51:22;;;;;;;;;;;;;;;20.64;95.38;98659.66;5043355;28;19921;-76
2023/09/05 07:53:50;;;;;;;;;;;;;;;20.57;94.66;98661.25;5045937;28;19932;-77
2023/09/05 07:56:16;;;;;;;;;;;;;;;20.63;96.98;98668.16;5063418;28;19925;-76
2023/09/05 07:58:46;;;;;;;;;;;;;;;20.69;95.42;98672.31;5042574;28;19947;-76
2023/09/05 08:01:13;;;;;;;;;;;;;;;20.65;94.15;98666.72;5060199;28;19968;-76
2023/09/05 08:03:39;;;;;;;;;;;;;;;20.46;95.13;98663.38;5054824;28;19925;-76
2023/09/05 08:06:06;;;;;;;;;;;;;;;20.36;97.41;98658.22;5045794;28;19920;-76
2023/09/05 08:08:32;;;;;;;;;;;;;;;20.40;98.17;98657.28;5043497;28;19924;-77
2023/09/05 08:10:58;;;;;;;;;;;;;;;20.35;98.26;98659.34;5060553;28;19925;-77
2023/09/05 08:13:25;;;;;;;;;;;;;;;20.44;99.50;98655.56;5061671;28;19996;-77
2023/09/05 08:15:54;;;;;;;;;;;;;;;20.60;98.92;98653.28;5058492;28;19959;-77
2023/09/05 08:18:20;;;;;;;;;;;;;;;20.65;99.95;98644.19;5060340;28;19920;-77
2023/09/05 08:20:47;;;;;;;;;;;;;;;20.67;99.00;98647.41;5060042;28;19960;-78
2023/09/05 08:23:13;;;;;;;;;;;;;;;20.77;99.09;98647.94;5042092;28;19956;-77
2023/09/05 08:25:40;;;;;;;;;;;;;;;20.74;97.00;98653.19;5063269;28;19983;-77
2023/09/05 08:28:06;;;;;;;;;;;;;;;20.76;95.78;98646.34;5063602;28;19921;-77
2023/09/05 08:30:33;;;;;;;;;;;;;;;20.73;97.04;98646.19;5043297;28;20004;-77
2023/09/05 08:33:02;;;;;;;;;;;;;;;20.84;97.93;98644.78;5042631;28;19928;-77
2023/09/05 08:35:28;;;;;;;;;;;;;;;20.92;93.69;98644.03;5044238;28;19932;-77
2023/09/05 08:37:57;;;;;;;;;;;;;;;20.99;92.74;98638.94;5063458;28;19933;-77
2023/09/05 08:40:24;;;;;;;;;;;;;;;21.09;90.19;98638.72;5062293;28;20047;-77
2023/09/05 08:42:51;;;;;;;;;;;;;;;21.14;84.68;98641.28;5041428;28;19925;-77
2023/09/05 08:45:20;;;;;;;;;;;;;;;21.14;86.72;98651.34;5041242;28;19929;-77
2023/09/05 08:47:47;;;;;;;;;;;;;;;21.17;84.07;98634.44;5033307;28;19948;-77
2023/09/05 08:50:15;;;;;;;;;;;;;;;21.24;85.36;98634.75;5060253;28;19967;-77
2023/09/05 08:52:42;;;;;;;;;;;;;;;21.19;85.73;98630.28;5059676;28;19996;-76
2023/09/05 08:55:10;;;;;;;;;;;;;;;21.17;85.06;98629.00;5059399;28;19959;-76
2023/09/05 08:57:38;;;;;;;;;;;;;;;21.20;85.74;98633.81;5044902;28;19929;-76
2023/09/05 09:00:06;;;;;;;;;;;;;;;21.19;83.60;98635.72;5063258;28;19921;-77
2023/09/05 09:02:32;;;;;;;;;;;;;;;21.28;84.37;98627.59;5060295;28;20004;-76
2023/09/05 09:05:00;;;;;;;;;;;;;;;21.44;84.99;98621.41;5059407;28;20091;-76
2023/09/05 09:07:28;;;;;;;;;;;;;;;21.54;84.61;98618.38;5060890;28;19988;-76
2023/09/05 09:09:55;;;;;;;;;;;;;;;21.51;80.39;98623.63;5045034;28;19992;-77
2023/09/05 09:12:26;;;;;;;;;;;;;;;21.61;78.12;98617.09;5061360;28;19931;-77
2023/09/05 09:14:53;;;;;;;;;;;;;;;21.65;74.16;98615.34;5041200;28;20290;-77
2023/09/05 09:17:19;;;;;;;;;;;;;;;21.62;73.00;98618.72;5033535;28;20500;-76
2023/09/05 09:19:46;;;;;;;;;;;;;;;21.71;71.31;98617.63;5062141;28;20506;-77
2023/09/05 09:22:12;;;;;;;;;;;;;;;21.82;71.23;98618.09;5062419;28;19987;-77
2023/09/05 09:24:40;;;;;;;;;;;;;;;21.80;70.86;98617.63;5058804;28;19944;-77
2023/09/05 09:27:23;;;;;;;;;;;;;;;21.95;71.19;98625.31;5059867;28;19952;-77
2023/09/05 09:29:53;;;;;;;;;;;;;;;22.05;70.16;98619.56;5044538;28;19928;-78
2023/09/05 09:32:20;;;;;;;;;;;;;;;22.27;71.40;98619.41;5043817;28;19925;-77
2023/09/05 09:34:47;;;;;;;;;;;;;;;22.17;68.19;98617.00;5040734;28;19932;-77
2023/09/05 09:37:15;;;;;;;;;;;;;;;22.04;67.24;98626.13;5058589;28;19925;-76
2023/09/05 09:39:42;;;;;;;;;;;;;;;22.15;66.88;98615.72;5062339;28;19963;-77
2023/09/05 09:42:11;;;;;;;;;;;;;;;22.08;65.91;98610.78;5061924;28;19952;-77
2023/09/05 09:44:38;;;;;;;;;;;;;;;22.27;66.45;98619.41;5040610;28;19925;-76
2023/09/05 09:47:04;;;;;;;;;;;;;;;22.30;65.79;98610.59;5032144;28;19931;-76
2023/09/05 09:49:31;;;;;;;;;;;;;;;22.31;65.81;98609.47;5060635;28;19944;-76
2023/09/05 09:52:03;;;;;;;;;;;;;;;22.46;65.00;98608.19;5061574;28;19935;-76
2023/09/05 09:54:31;;;;;;;;;;;;;;;22.52;65.45;98594.06;5059399;28;19925;-76
2023/09/05 09:57:01;;;;;;;;;;;;;;;22.78;65.82;98598.66;5058027;28;20306;-76
2023/09/05 09:59:33;;;;;;;;;;;;;;;22.70;65.10;98599.47;5059753;28;19925;-77
2023/09/05 10:01:59;;;;;;;;;;;;;;;22.81;64.71;98595.31;5044085;28;19925;-77
2023/09/05 10:04:26;;;;;;;;;;;;;;;22.83;64.67;98591.13;5042329;28;20267;-77
2023/09/05 10:06:54;;;;;;;;;;;;;;;22.85;62.89;98596.22;5040151;28;19964;-76
2023/09/05 10:09:21;;;;;;;;;;;;;;;22.93;60.51;98598.13;5058328;28;19925;-76
2023/09/05 10:11:49;;;;;;;;;;;;;;;22.99;59.46;98585.94;5061378;28;19932;-76
2023/09/05 10:14:17;;;;;;;;;;;;;;;23.22;60.61;98579.06;5061125;28;19925;-76
2023/09/05 10:16:45;;;;;;;;;;;;;;;23.40;59.95;98579.78;5049649;28;19964;-76
2023/09/05 10:19:14;;;;;;;;;;;;;;;24.06;59.08;98572.56;5040350;28;19925;-77
2023/09/05 10:21:41;;;;;;;;;;;;;;;23.65;57.88;98584.28;5049868;28;19932;-76
2023/09/05 10:24:08;;;;;;;;;;;;;;;23.39;59.27;98579.00;5058791;28;19953;-77
2023/09/05 10:26:34;;;;;;;;;;;;;;;23.47;59.15;98578.16;5045443;28;19928;-77
2023/09/05 10:29:03;;;;;;;;;;;;;;;23.47;58.71;98572.69;5065584;28;19925;-77
2023/09/05 10:31:31;;;;;;;;;;;;;;;23.90;57.77;98558.72;5063804;28;19932;-76
2023/09/05 10:33:59;;;;;;;;;;;;;;;23.77;56.97;98559.03;5062062;28;19925;-77
2023/09/05 10:36:41;;;;;;;;;;;;;;;23.75;57.14;98547.63;5063380;28;19925;-77
2023/09/05 10:39:17;;;;;;;;;;;;;;;23.77;56.05;98557.06;5065229;28;19992;-77
2023/09/05 10:41:44;;;;;;;;;;;;;;;23.72;57.02;98543.63;5035583;28;19925;-76
2023/09/05 10:44:10;;;;;;;;;;;;;;;23.75;57.05;98553.88;5051239;28;19924;-76
2023/09/05 10:46:39;;;;;;;;;;;;;;;23.71;56.56;98538.50;5053663;28;19925;-76
2023/09/05 10:49:10;;;;;;;;;;;;;;;24.02;56.81;98538.88;5061482;28;19936;-77
2023/09/05 10:51:36;;;;;;;;;;;;;;;23.91;56.67;98538.50;5065022;28;19935;-77
2023/09/05 10:54:17;;;;;;;;;;;;;;;24.00;55.57;98543.88;5064986;28;19952;-77
2023/09/05 10:56:44;;;;;;;;;;;;;;;24.05;55.33;98540.94;5062047;28;19921;-77
2023/09/05 10:59:11;;;;;;;;;;;;;;;24.23;54.98;98538.88;5061823;28;20006;-77
2023/09/05 11:01:47;;;;;;;;;;;;;;;24.00;54.99;98528.31;5046852;28;19924;-77
2023/09/05 11:04:18;;;;;;;;;;;;;;;23.99;54.42;98532.16;5064888;28;19956;-77
2023/09/05 11:06:54;;;;;;;;;;;;;;;24.12;54.40;98525.66;5052471;28;19921;-77
2023/09/05 11:09:20;;;;;;;;;;;;;;;24.38;53.43;98522.66;5054149;28;19948;-77
2023/09/05 11:11:47;;;;;;;;;;;;;;;24.47;54.10;98517.91;5039348;28;19929;-77
2023/09/05 11:14:13;;;;;;;;;;;;;;;24.40;54.76;98514.91;5056405;28;19967;-77
2023/09/05 11:16:47;;;;;;;;;;;;;;;24.41;55.25;98516.53;5053335;28;19921;-77
2023/09/05 11:19:28;;;;;;;;;;;;;;;24.30;53.31;98509.06;5045538;28;20001;-77
2023/09/05 11:22:05;;;;;;;;;;;;;;;24.28;49.39;98517.63;5051087;28;19943;-77
2023/09/05 11:24:32;;;;;;;;;;;;;;;24.32;50.70;98513.09;5048751;28;20400;-76
2023/09/05 11:26:58;;;;;;;;;;;;;;;24.27;52.07;98513.28;5046047;28;19932;-77
2023/09/05 11:29:28;;;;;;;;;;;;;;;24.20;54.65;98523.19;5047153;28;19976;-76
2023/09/05 11:31:56;;;;;;;;;;;;;;;24.09;54.04;98514.56;5066530;28;19929;-76
2023/09/05 11:34:25;;;;;;;;;;;;;;;24.13;55.08;98510.06;5063412;28;19948;-76
2023/09/05 11:36:51;;;;;;;;;;;;;;;24.18;54.46;98507.13;5060782;28;19925;-76
2023/09/05 11:39:18;;;;;;;;;;;;;;;24.25;53.96;98512.03;5043847;28;19955;-76
2023/09/05 11:41:44;;;;;;;;;;;;;;;24.34;52.14;98504.53;5046157;28;19996;-76
2023/09/05 11:44:10;;;;;;;;;;;;;;;24.38;52.62;98500.81;5046093;28;19925;-77
2023/09/05 11:46:40;;;;;;;;;;;;;;;24.29;51.57;98497.38;5052576;28;19940;-77
2023/09/05 11:49:07;;;;;;;;;;;;;;;24.27;51.43;98488.72;5042357;28;19960;-77
2023/09/05 11:51:34;;;;;;;;;;;;;;;24.22;51.10;98499.06;5044962;28;20375;-76
2023/09/05 11:54:01;;;;;;;;;;;;;;;24.28;51.82;98495.78;5064174;28;19929;-76
2023/09/05 11:56:28;;;;;;;;;;;;;;;24.40;51.41;98490.34;5062143;28;19925;-76
2023/09/05 11:58:54;;;;;;;;;;;;;;;24.53;52.59;98494.69;5042477;28;20407;-76
2023/09/05 12:01:27;;;;;;;;;;;;;;;24.62;52.44;98489.91;5043543;28;20367;-76
2023/09/05 12:03:59;;;;;;;;;;;;;;;24.77;52.16;98490.34;5062821;28;19929;-76
2023/09/05 12:06:26;;;;;;;;;;;;;;;24.65;51.91;98486.50;5062024;28;19921;-76
2023/09/05 12:08:53;;;;;;;;;;;;;;;24.67;52.19;98480.69;5042546;28;19925;-76
2023/09/05 12:11:24;;;;;;;;;;;;;;;24.67;52.56;98472.47;5060958;28;19960;-76
2023/09/05 12:13:55;;;;;;;;;;;;;;;24.67;52.36;98475.22;5045989;28;19925;-77
2023/09/05 12:16:22;;;;;;;;;;;;;;;24.63;51.77;98468.88;5036718;28;19932;-77
2023/09/05 12:18:49;;;;;;;;;;;;;;;24.58;51.77;98460.88;5044087;28;19951;-76
2023/09/05 12:21:16;;;;;;;;;;;;;;;24.69;51.96;98451.09;5060255;28;19983;-76
2023/09/05 12:23:42;;;;;;;;;;;;;;;24.91;51.95;98458.06;5063830;28;19953;-77
2023/09/05 12:26:10;;;;;;;;;;;;;;;24.71;50.43;98449.63;5063739;28;19924;-77
2023/09/05 12:28:38;;;;;;;;;;;;;;;24.78;50.57;98454.50;5060617;28;19921;-76
2023/09/05 12:31:08;;;;;;;;;;;;;;;24.84;50.74;98446.91;5060375;28;19921;-77
2023/09/05 12:33:34;;;;;;;;;;;;;;;24.89;50.96;98444.75;5063660;28;19925;-77
2023/09/05 12:36:01;;;;;;;;;;;;;;;24.84;50.58;98444.97;5063882;28;19925;-78
2023/09/05 12:38:30;;;;;;;;;;;;;;;24.95;51.08;98446.09;5044274;28;19929;-77
2023/09/05 12:40:59;;;;;;;;;;;;;;;24.89;51.01;98438.47;5042569;28;19932;-77
2023/09/05 12:43:26;;;;;;;;;;;;;;;24.76;51.48;98439.63;5062944;28;19950;-76